Aeroporto :
LOGIN :

Iscrizione | Disclaimer

   EN    FR    IT 

 










Sommario :    VFR   VFR Marginale   IFR   IFR Intensivo   IFR Molto Intensivo
Visibilità : 
Base nubi : 
>= 8 km
>= 3000ft
5 / 8 km
1000 / 3000 ft
1500m / 5 km
500 / 1000 ft
800 / 1500m
200 / 500 ft
< 800m
< 200 ft
Simboli :   Temporali  Nebbia  Neve Forte  Precipitazioni Forti  Vento > 20 kt
SIGMETs :   Varie  Temporali  Ghiacco  Turbolenza  Onda orograficha  Ceneri Vulcaniche






- Altitudine del aeroporto : 286 ft
- Codice IATA : TRF


ENTO - Sandefjord , Torp

ULTIMO METAR :
  • 110450Z 21018KT 9000 FEW006 BKN008 07/07 Q0989

METARs OBSOLETI :
  • 110420Z AUTO 20023KT 7000 -RA OVC006/// 07/07 Q0988
  • 110350Z AUTO 19029G44KT 8000 OVC006/// 07/07 Q0988
  • 110320Z AUTO 19030G42KT 5000 -DZ OVC006/// 06/06 Q0988
  • 110250Z AUTO 19028G41KT 6000 -RA OVC006/// 06/06 Q0989
  • 110220Z AUTO 19029G41KT 4400 -RA OVC005/// 06/06 Q0989 RERA
  • 110150Z AUTO 19028G41KT 3900 RA OVC005/// 06/05 Q0990 RERA

TAF TAF ENTO
Valido dal 11 a 00 ore il 12 a 00 ore UTC


1100/1124 18025G35KT 7000 -RA SCT008 BKN015
TEMPO 1100/1105 19035G45KT 2000 RADZ BR OVC004
BECMG 1105/1107 22015KT SCT020
PROB30
TEMPO 1105/1108 SHRA SCT010 FEW015CB
TEMPO 1105/1113 23018G28KT



MetMap, La meteo Aeronautica in un colpo d'occhio ! - Copyright ORBIFLY Dicembre 2007 - Disclaimer

ORBIFLY MET'MAP TEAM :

Programmazione e sviluppo : Alexandra Zaïnal
Concezione : Baudouin d'Aumeries
Aiuto per la programmazione : Marc-Olivier Méhu
Supporto tecnico e logistico : Manuel Goepfert
Aiuto per la traduzione : Arnaldo La Scala

Contatto : metmap@orbifly.com




FONTI E CREDITI :

   NOAA